Airfield :
LOGIN :

Register | Disclaimer

   EN    FR    IT 

 










Legend :    VFR   Marginal VFR   IFR   Intensive IFR   Very Intensive IFR
Visi :
Ceiling :
>= 8 km
>= 3000ft
5 to 8 km
1000 to 3000 ft
1500m to 5 km
500 to 1000 ft
800 to 1500m
200 to 500 ft
< 800m
< 200 ft
Symbols :   Thunderstorms  Fog  Heavy snow  Heavy precipitations  Wind > 20 kt
SIGMETs :     Misc.  Thunderstorms  Icing  Turbulence  Mountain Waves  Volcanic Ashes






- Airport Elevation : 20 ft
- IATA code : OIZ


DTTB - Sidi Ahmed Air Base

CURRENT METAR :
  • 300200Z 22011KT 8000 -RA SCT020 SCT030 10/08 Q1009

EXPIRED METARs :
  • 300100Z /////KT 8000 TSRA SCT020 FEW023CB SCT030 Q////

TAF TAF DTTB
Valid from the 30 at 01:00 until the 30 at 10:00 UTC


300000Z 3001/3010 28020KT 9999 SCT020
TEMPO 3001/3010 33020G33KT
TEMPO 3000/3007 4000 TS SHRA FEW026TCU FEW030CB



MET'MAP, your aeronautical weather chart ! - Copyright ORBIFLY December 2007 - Disclaimer

ORBIFLY MET'MAP TEAM :

Programming & Development : Alexandra Zaïnal
Original concept : Baudouin d'Aumeries
Technical & hardware support : Manuel Goepfert
Assistance : Marc-Olivier Méhu




SOURCES & CREDITS :

   NOAA